Time;durP1;ratioP1;P1;durP2;ratioP2;P2;SDS_P1;SDS_P2;PMS_P1;PMS_P2;Temp;Humidity;BMP_temperature;BMP_pressure;BME280_temperature;BME280_humidity;BME280_pressure;Samples;Min_cycle;Max_cycle;Signal;HPM_P1;HPM_P2
2023/06/21 03:02:22;;;;;;;84.68;46.55;;;18.40;99.90;;;;;;6273841;22;20027;-78
2023/06/21 03:04:47;;;;;;;89.82;48.55;;;18.50;99.90;;;;;;6250981;22;20018;-78
2023/06/21 03:07:13;;;;;;;93.13;49.28;;;18.50;99.90;;;;;;6251025;22;20011;-77
2023/06/21 03:09:38;;;;;;;87.47;49.03;;;18.50;99.90;;;;;;6278293;22;20067;-79
2023/06/21 03:12:08;;;;;;;88.45;48.08;;;18.50;99.90;;;;;;6250717;22;20086;-78
2023/06/21 03:14:37;;;;;;;96.13;51.63;;;18.50;99.90;;;;;;6250864;22;20015;-77
2023/06/21 03:17:06;;;;;;;92.32;50.92;;;18.40;99.90;;;;;;6250806;22;20444;-79
2023/06/21 03:19:32;;;;;;;104.07;52.47;;;18.40;99.90;;;;;;6250580;22;20023;-77
2023/06/21 03:21:57;;;;;;;105.30;53.42;;;18.40;99.90;;;;;;6225723;22;20019;-77
2023/06/21 03:24:23;;;;;;;89.07;47.78;;;18.50;99.90;;;;;;6278074;22;20026;-76
2023/06/21 03:26:49;;;;;;;92.10;50.78;;;18.40;99.90;;;;;;6278010;22;20385;-75
2023/06/21 03:29:15;;;;;;;94.18;50.05;;;18.40;99.90;;;;;;6250197;22;20441;-76
2023/06/21 03:31:40;;;;;;;91.80;50.25;;;18.50;99.90;;;;;;6278067;22;20090;-78
2023/06/21 03:34:06;;;;;;;96.57;50.53;;;18.50;99.90;;;;;;6278193;22;20417;-78
2023/06/21 03:36:32;;;;;;;89.35;49.95;;;18.40;99.90;;;;;;6250639;22;20088;-75
2023/06/21 03:38:57;;;;;;;94.05;49.95;;;18.40;99.90;;;;;;6250812;22;20069;-77
2023/06/21 03:41:23;;;;;;;94.75;50.35;;;18.40;99.90;;;;;;6250533;22;20453;-78
2023/06/21 03:43:49;;;;;;;95.38;51.50;;;18.40;99.90;;;;;;6250526;22;20026;-77
2023/06/21 03:46:14;;;;;;;90.40;51.03;;;18.40;99.90;;;;;;6250631;22;20008;-76
2023/06/21 03:48:40;;;;;;;93.75;49.80;;;18.40;99.90;;;;;;6250552;22;20015;-78
2023/06/21 03:51:06;;;;;;;91.82;50.50;;;18.40;99.90;;;;;;6250542;22;20015;-78
2023/06/21 03:53:31;;;;;;;94.53;50.42;;;18.40;99.90;;;;;;6277815;22;20071;-77
2023/06/21 03:55:57;;;;;;;93.00;50.20;;;18.30;99.90;;;;;;6250494;22;20011;-76
2023/06/21 03:58:23;;;;;;;91.95;48.83;;;18.30;99.90;;;;;;6277594;22;20023;-78
2023/06/21 04:00:48;;;;;;;98.60;52.13;;;18.30;99.90;;;;;;6250234;22;20449;-78
2023/06/21 04:03:14;;;;;;;98.45;51.25;;;18.30;99.90;;;;;;6250611;22;20019;-77
2023/06/21 04:05:40;;;;;;;94.28;50.72;;;18.30;99.90;;;;;;6251821;22;20023;-77
2023/06/21 04:08:05;;;;;;;110.35;55.58;;;18.30;99.90;;;;;;6277752;22;20047;-78
2023/06/21 04:10:31;;;;;;;101.05;52.03;;;18.30;99.90;;;;;;6250165;22;20004;-77
2023/06/21 04:12:57;;;;;;;96.05;51.22;;;18.30;99.90;;;;;;6225046;22;20083;-76
2023/06/21 04:15:22;;;;;;;96.93;51.15;;;18.30;99.90;;;;;;6250324;22;20007;-75
2023/06/21 04:17:49;;;;;;;110.57;55.80;;;18.30;99.90;;;;;;6277401;22;20004;-76
2023/06/21 04:20:15;;;;;;;100.93;52.20;;;18.30;99.90;;;;;;6224858;22;20437;-78
2023/06/21 04:22:41;;;;;;;92.32;50.53;;;18.30;99.90;;;;;;6277582;22;20008;-75
2023/06/21 04:25:10;;;;;;;103.97;51.83;;;18.30;99.90;;;;;;6250052;22;20011;-76
2023/06/21 04:27:38;;;;;;;100.55;51.47;;;18.30;99.90;;;;;;6250048;22;20018;-77
2023/06/21 04:30:04;;;;;;;88.50;48.15;;;18.30;99.90;;;;;;6277391;22;20020;-78
2023/06/21 04:32:33;;;;;;;79.95;45.30;;;18.20;99.90;;;;;;6277021;22;20008;-77
2023/06/21 04:34:59;;;;;;;75.97;42.78;;;18.30;99.90;;;;;;6277809;22;20008;-77
2023/06/21 04:37:26;;;;;;;62.58;37.35;;;18.30;99.90;;;;;;6249850;22;20012;-78
2023/06/21 04:39:52;;;;;;;62.55;36.83;;;18.20;99.90;;;;;;6249923;22;20020;-76
2023/06/21 04:42:21;;;;;;;52.83;32.03;;;18.20;99.90;;;;;;6224819;22;20095;-76
2023/06/21 04:44:50;;;;;;;43.80;29.00;;;18.20;99.90;;;;;;6249850;22;20472;-75
2023/06/21 04:47:16;;;;;;;45.75;28.13;;;18.20;99.90;;;;;;6250460;22;20085;-76
2023/06/21 04:49:43;;;;;;;42.40;26.70;;;18.20;99.90;;;;;;6276798;22;20015;-77
2023/06/21 04:52:09;;;;;;;41.00;25.75;;;18.20;99.90;;;;;;6224456;22;20162;-79
2023/06/21 04:54:36;;;;;;;39.55;24.95;;;18.20;99.90;;;;;;6276861;22;20023;-76
2023/06/21 04:57:04;;;;;;;39.25;22.90;;;18.20;99.90;;;;;;6276836;22;20003;-80
2023/06/21 04:59:30;;;;;;;37.00;22.42;;;18.20;99.90;;;;;;6276958;22;20007;-77
2023/06/21 05:01:56;;;;;;;37.60;22.08;;;18.10;99.90;;;;;;6249487;22;20016;-77
2023/06/21 05:04:22;;;;;;;37.58;21.23;;;18.20;99.90;;;;;;6277086;22;20022;-75
2023/06/21 05:06:47;;;;;;;37.10;21.20;;;18.10;99.90;;;;;;6249626;22;20018;-76
2023/06/21 05:09:13;;;;;;;35.22;21.13;;;18.20;99.90;;;;;;6276926;22;20019;-77
2023/06/21 05:11:39;;;;;;;33.75;19.88;;;18.20;99.90;;;;;;6249470;22;20073;-76
2023/06/21 05:14:04;;;;;;;35.15;18.58;;;18.20;99.90;;;;;;6249524;22;20043;-79
2023/06/21 05:16:30;;;;;;;32.72;19.15;;;18.20;99.90;;;;;;6249436;22;20372;-77
2023/06/21 05:18:56;;;;;;;30.05;18.40;;;18.20;99.90;;;;;;6250158;22;20453;-78
2023/06/21 05:21:21;;;;;;;32.83;18.10;;;18.30;99.90;;;;;;6224998;22;20049;-78
2023/06/21 05:23:47;;;;;;;36.67;18.15;;;18.30;99.90;;;;;;6276850;22;20086;-78
2023/06/21 05:26:12;;;;;;;31.70;17.50;;;18.20;99.90;;;;;;6249563;22;20097;-77
2023/06/21 05:28:38;;;;;;;32.88;17.65;;;18.20;99.90;;;;;;6277243;22;20015;-77
2023/06/21 05:31:04;;;;;;;26.38;16.00;;;18.30;99.90;;;;;;6249673;22;20087;-76
2023/06/21 05:33:29;;;;;;;29.33;16.48;;;18.30;99.90;;;;;;6249534;22;20023;-75
2023/06/21 05:35:55;;;;;;;26.50;14.52;;;18.30;99.90;;;;;;6249555;22;20038;-75
2023/06/21 05:38:21;;;;;;;28.63;16.90;;;18.30;99.90;;;;;;6249686;22;20069;-76
2023/06/21 05:40:46;;;;;;;25.40;16.38;;;18.30;99.90;;;;;;6249336;22;20445;-78
2023/06/21 05:43:12;;;;;;;30.70;15.63;;;18.40;99.90;;;;;;6249246;22;20475;-79
2023/06/21 05:45:40;;;;;;;26.55;16.38;;;18.40;99.90;;;;;;6249279;22;20043;-75
2023/06/21 05:48:06;;;;;;;27.95;16.60;;;18.40;99.90;;;;;;6249103;22;20020;-70
2023/06/21 05:50:31;;;;;;;23.80;14.48;;;18.40;99.90;;;;;;6249064;22;20012;-76
2023/06/21 05:52:58;;;;;;;28.35;15.38;;;18.50;99.90;;;;;;6248983;22;20019;-78
2023/06/21 05:55:24;;;;;;;22.83;14.30;;;18.50;99.90;;;;;;6224002;22;20012;-82
2023/06/21 05:57:50;;;;;;;26.40;14.90;;;18.50;99.90;;;;;;6249433;22;20012;-78
2023/06/21 06:00:16;;;;;;;26.83;15.05;;;18.50;99.90;;;;;;6248924;22;20050;-75
2023/06/21 06:02:42;;;;;;;23.75;14.35;;;18.50;99.90;;;;;;6249794;22;20047;-77
2023/06/21 06:05:10;;;;;;;25.30;13.40;;;18.60;99.90;;;;;;6223956;22;20016;-79
2023/06/21 06:07:35;;;;;;;26.40;14.57;;;18.60;99.90;;;;;;6249151;22;20019;-78
2023/06/21 06:10:01;;;;;;;21.23;13.43;;;18.60;99.90;;;;;;6249093;22;20027;-75
2023/06/21 06:12:27;;;;;;;22.38;12.82;;;18.60;99.90;;;;;;6248980;22;20087;-78
2023/06/21 06:14:53;;;;;;;20.13;13.25;;;18.70;99.90;;;;;;6223954;22;20024;-78
2023/06/21 06:17:19;;;;;;;20.15;12.85;;;18.70;99.90;;;;;;6249308;22;20016;-77
2023/06/21 06:19:44;;;;;;;24.38;13.35;;;18.70;99.90;;;;;;6249124;22;20091;-76
2023/06/21 06:22:11;;;;;;;20.40;13.07;;;18.70;99.90;;;;;;6276341;22;20039;-76
2023/06/21 06:24:37;;;;;;;21.75;12.98;;;18.80;99.90;;;;;;6249176;22;20440;-74
2023/06/21 06:27:03;;;;;;;19.35;11.18;;;18.80;99.90;;;;;;6223880;22;20015;-75
2023/06/21 06:29:30;;;;;;;21.50;12.18;;;18.90;99.90;;;;;;6249019;22;20012;-74
2023/06/21 06:31:55;;;;;;;23.02;12.02;;;19.00;99.90;;;;;;6249442;22;20483;-75
2023/06/21 06:34:21;;;;;;;19.42;11.63;;;19.00;99.90;;;;;;6249445;22;20012;-77
2023/06/21 06:36:46;;;;;;;17.83;11.73;;;19.10;99.90;;;;;;6249226;22;20015;-76
2023/06/21 06:39:13;;;;;;;14.30;10.45;;;19.10;99.90;;;;;;6249270;22;20022;-75
2023/06/21 06:41:38;;;;;;;17.70;10.55;;;19.10;99.90;;;;;;6249461;22;20016;-74
2023/06/21 06:44:04;;;;;;;17.38;11.15;;;19.20;99.90;;;;;;6249276;22;20020;-76
2023/06/21 06:46:30;;;;;;;17.40;10.80;;;19.20;99.90;;;;;;6223875;22;20047;-75
2023/06/21 06:48:56;;;;;;;17.48;10.82;;;19.30;99.90;;;;;;6249407;22;20016;-77
2023/06/21 06:51:23;;;;;;;16.73;10.32;;;19.30;99.90;;;;;;6249015;22;20016;-75
2023/06/21 06:53:49;;;;;;;14.57;9.80;;;19.40;99.90;;;;;;6248995;22;20022;-78
2023/06/21 06:56:14;;;;;;;14.38;9.98;;;19.50;99.90;;;;;;6249196;22;20333;-76
2023/06/21 06:58:40;;;;;;;15.07;9.05;;;19.60;99.90;;;;;;6250146;22;20089;-77
2023/06/21 07:01:06;;;;;;;14.85;8.85;;;19.60;99.90;;;;;;6249121;22;20081;-77
2023/06/21 07:03:35;;;;;;;11.77;8.27;;;19.70;99.90;;;;;;6249235;22;20071;-79
2023/06/21 07:06:00;;;;;;;12.63;7.93;;;19.70;99.90;;;;;;6251189;22;20016;-77
2023/06/21 07:08:27;;;;;;;13.57;8.10;;;19.70;99.90;;;;;;6277955;22;20460;-79
2023/06/21 07:10:53;;;;;;;11.65;7.90;;;19.80;99.90;;;;;;6250708;22;20433;-78
2023/06/21 07:13:18;;;;;;;14.93;8.02;;;19.80;99.90;;;;;;6250932;22;20129;-80
2023/06/21 07:15:45;;;;;;;12.38;8.07;;;19.90;99.90;;;;;;6250681;22;20004;-81
2023/06/21 07:18:11;;;;;;;12.45;7.50;;;19.90;99.90;;;;;;6250803;22;20011;-78
2023/06/21 07:20:41;;;;;;;12.60;7.65;;;19.90;99.90;;;;;;6251982;22;20011;-78
2023/06/21 07:23:07;;;;;;;12.45;8.02;;;19.90;99.90;;;;;;6283617;22;20012;-78
2023/06/21 07:25:32;;;;;;;10.30;7.38;;;19.90;99.90;;;;;;6255499;22;20012;-76
2023/06/21 07:27:58;;;;;;;12.38;7.40;;;20.00;99.90;;;;;;6253768;22;20054;-77
2023/06/21 07:30:24;;;;;;;13.07;8.18;;;20.00;99.90;;;;;;6252718;22;20062;-77
2023/06/21 07:32:50;;;;;;;12.20;7.80;;;20.00;99.90;;;;;;6251500;22;20007;-78
2023/06/21 07:35:17;;;;;;;10.77;7.53;;;20.10;99.90;;;;;;6251500;22;20007;-80
2023/06/21 07:37:43;;;;;;;10.90;7.15;;;20.20;99.90;;;;;;6250916;22;20042;-77
2023/06/21 07:40:10;;;;;;;9.30;6.68;;;20.20;99.90;;;;;;6250980;22;20015;-80
2023/06/21 07:42:36;;;;;;;9.55;6.20;;;20.30;99.90;;;;;;6226978;22;20467;-77
2023/06/21 07:45:01;;;;;;;9.90;6.95;;;20.30;99.90;;;;;;6251020;22;20015;-80
2023/06/21 07:47:27;;;;;;;11.75;6.13;;;20.40;99.90;;;;;;6251390;22;20441;-77
2023/06/21 07:49:53;;;;;;;10.27;5.93;;;20.40;99.90;;;;;;6278194;22;20016;-76
2023/06/21 07:52:19;;;;;;;9.65;6.55;;;20.40;99.90;;;;;;6250971;22;20030;-78
2023/06/21 07:54:47;;;;;;;9.20;6.63;;;20.40;99.90;;;;;;6278029;22;20008;-77
2023/06/21 07:57:17;;;;;;;8.52;5.63;;;20.50;99.90;;;;;;6278087;22;20035;-78
2023/06/21 07:59:43;;;;;;;8.10;5.95;;;20.50;99.90;;;;;;6278069;22;20334;-79
2023/06/21 08:02:09;;;;;;;7.97;5.30;;;20.50;99.90;;;;;;6250096;22;20011;-77
2023/06/21 08:04:36;;;;;;;11.30;6.90;;;20.60;99.90;;;;;;6250294;22;20016;-76
2023/06/21 08:07:04;;;;;;;9.00;5.57;;;20.60;99.90;;;;;;6250536;22;20017;-79
2023/06/21 08:09:29;;;;;;;10.85;5.97;;;20.70;99.90;;;;;;6278088;22;20039;-78
2023/06/21 08:11:55;;;;;;;10.23;6.13;;;20.80;99.90;;;;;;6277763;22;20008;-78
2023/06/21 08:14:20;;;;;;;7.40;5.65;;;20.80;99.90;;;;;;6250310;22;20012;-78
2023/06/21 08:16:46;;;;;;;8.90;5.53;;;20.90;99.90;;;;;;6250236;22;20031;-79
2023/06/21 08:19:12;;;;;;;8.65;5.55;;;20.90;99.90;;;;;;6277382;22;20015;-76
2023/06/21 08:21:38;;;;;;;7.85;5.43;;;21.00;99.90;;;;;;6250240;22;20374;-78
2023/06/21 08:24:04;;;;;;;8.73;5.88;;;21.00;99.90;;;;;;6277636;22;20392;-77
2023/06/21 08:26:29;;;;;;;9.00;6.78;;;21.10;99.90;;;;;;6250251;22;20015;-76
2023/06/21 08:28:55;;;;;;;9.65;6.80;;;21.10;99.90;;;;;;6250140;22;20016;-79
2023/06/21 08:31:21;;;;;;;8.65;5.03;;;21.20;99.90;;;;;;6277600;22;20053;-78
2023/06/21 08:33:46;;;;;;;9.25;6.13;;;21.30;99.90;;;;;;6277879;22;20049;-77
2023/06/21 08:36:12;;;;;;;8.70;5.60;;;21.30;99.90;;;;;;6250041;22;20012;-77
2023/06/21 08:38:38;;;;;;;7.55;5.20;;;21.40;99.90;;;;;;6250150;22;20436;-76
2023/06/21 08:41:04;;;;;;;9.45;5.05;;;21.40;99.90;;;;;;6250835;22;20020;-78
2023/06/21 08:43:31;;;;;;;6.57;4.88;;;21.50;99.90;;;;;;6249927;22;20467;-77
2023/06/21 08:45:57;;;;;;;7.15;4.75;;;21.50;99.90;;;;;;6249945;22;20016;-77
2023/06/21 08:48:24;;;;;;;8.20;4.70;;;21.50;99.90;;;;;;6250015;22;20564;-77
2023/06/21 08:50:50;;;;;;;8.30;4.88;;;21.50;99.90;;;;;;6224662;22;20341;-78
2023/06/21 08:53:38;;;;;;;8.50;5.03;;;21.60;99.90;;;;;;6249933;22;20492;-76
2023/06/21 08:56:06;;;;;;;7.22;4.68;;;21.60;99.90;;;;;;6249768;22;20038;-76
2023/06/21 08:58:49;;;;;;;7.30;4.65;;;21.70;99.90;;;;;;6276849;22;20394;-78
2023/06/21 09:01:19;;;;;;;8.13;5.05;;;21.70;99.90;;;;;;6249546;22;20015;-77
2023/06/21 09:03:50;;;;;;;10.32;5.20;;;21.80;99.90;;;;;;6249810;22;20449;-77
2023/06/21 09:06:19;;;;;;;8.23;6.03;;;22.00;99.90;;;;;;6249836;22;20434;-75
2023/06/21 09:08:46;;;;;;;6.43;4.97;;;22.00;99.90;;;;;;6249588;22;20349;-76
2023/06/21 09:11:16;;;;;;;8.45;4.85;;;22.10;99.90;;;;;;6249806;22;20439;-77
2023/06/21 09:13:44;;;;;;;8.13;5.78;;;22.20;99.90;;;;;;6249818;22;20011;-78
2023/06/21 09:16:11;;;;;;;8.15;4.80;;;22.20;99.90;;;;;;6250218;22;20014;-78
2023/06/21 09:18:39;;;;;;;7.95;4.95;;;22.40;99.90;;;;;;6277126;22;20022;-76
2023/06/21 09:21:08;;;;;;;8.73;5.38;;;22.40;99.90;;;;;;6249636;22;20016;-77
2023/06/21 09:23:39;;;;;;;10.73;5.80;;;22.50;99.90;;;;;;6224355;22;20051;-76
2023/06/21 09:26:05;;;;;;;6.75;4.57;;;22.50;99.90;;;;;;6249478;22;20063;-76
2023/06/21 09:28:31;;;;;;;7.00;4.78;;;22.60;99.90;;;;;;6249542;22;20472;-76
2023/06/21 09:30:58;;;;;;;8.50;4.25;;;22.70;99.90;;;;;;6249421;22;20396;-78
2023/06/21 09:33:25;;;;;;;7.07;5.35;;;22.80;99.90;;;;;;6249584;22;20028;-77
2023/06/21 09:35:50;;;;;;;6.78;4.60;;;22.90;99.90;;;;;;6276628;22;20011;-78
2023/06/21 09:38:32;;;;;;;6.53;4.38;;;22.90;99.90;;;;;;6249467;22;20039;-77
2023/06/21 09:41:00;;;;;;;7.40;4.40;;;23.10;99.90;;;;;;6249411;22;20050;-76
2023/06/21 09:43:25;;;;;;;4.75;3.70;;;23.00;99.90;;;;;;6276700;22;20437;-78
2023/06/21 09:46:12;;;;;;;10.60;5.05;;;23.10;99.90;;;;;;6249472;22;20054;-76
2023/06/21 09:48:39;;;;;;;9.00;5.00;;;23.20;99.90;;;;;;6249321;22;20086;-75
2023/06/21 09:51:07;;;;;;;7.32;5.20;;;23.20;99.90;;;;;;6276702;22;20022;-78
2023/06/21 09:53:33;;;;;;;7.97;5.00;;;23.30;99.90;;;;;;6249315;22;20069;-76
2023/06/21 09:56:00;;;;;;;7.57;4.70;;;23.30;99.90;;;;;;6249345;22;20015;-77
2023/06/21 09:58:27;;;;;;;8.65;5.00;;;23.40;99.90;;;;;;6249302;22;20011;-77
2023/06/21 10:00:56;;;;;;;7.22;4.63;;;23.50;99.90;;;;;;6248990;22;20508;-77
2023/06/21 10:03:22;;;;;;;8.77;5.30;;;23.40;99.90;;;;;;6249281;22;20015;-77
2023/06/21 10:05:55;;;;;;;7.60;4.60;;;23.40;99.90;;;;;;6249305;22;20310;-77
2023/06/21 10:08:26;;;;;;;8.13;4.80;;;23.40;99.90;;;;;;6224004;22;20016;-78
2023/06/21 10:10:52;;;;;;;7.65;4.85;;;23.50;99.90;;;;;;6249228;22;20018;-77
2023/06/21 10:13:25;;;;;;;8.40;5.40;;;23.50;99.90;;;;;;6249299;22;20012;-77
2023/06/21 10:15:51;;;;;;;8.75;5.82;;;23.60;99.90;;;;;;6276731;22;20008;-76
2023/06/21 10:18:16;;;;;;;11.77;5.32;;;23.70;99.90;;;;;;6249192;22;20015;-76
2023/06/21 10:20:43;;;;;;;8.10;4.53;;;23.60;99.90;;;;;;6276294;22;20011;-76
2023/06/21 10:23:11;;;;;;;9.68;6.15;;;23.50;99.90;;;;;;6249089;22;20456;-76
2023/06/21 10:25:38;;;;;;;8.05;4.72;;;23.40;99.90;;;;;;6249181;22;20062;-76
2023/06/21 10:28:07;;;;;;;8.98;5.25;;;23.30;99.90;;;;;;6249153;22;20352;-76
2023/06/21 10:30:35;;;;;;;8.35;5.80;;;23.40;99.90;;;;;;6249029;22;20012;-77
2023/06/21 10:33:03;;;;;;;7.15;5.03;;;23.40;99.90;;;;;;6249129;22;20372;-75
2023/06/21 10:35:33;;;;;;;7.97;4.65;;;23.60;99.90;;;;;;6249279;22;20015;-75
2023/06/21 10:38:23;;;;;;;7.32;4.80;;;23.60;99.90;;;;;;6276633;22;20004;-77
2023/06/21 10:40:50;;;;;;;5.57;3.92;;;23.50;99.90;;;;;;6250928;22;20368;-75
2023/06/21 10:43:16;;;;;;;6.85;4.07;;;23.60;99.90;;;;;;6250913;22;20019;-76
2023/06/21 10:45:45;;;;;;;8.38;5.45;;;23.70;99.90;;;;;;6250926;22;20016;-75
2023/06/21 10:48:11;;;;;;;7.72;4.72;;;23.80;99.90;;;;;;6226555;22;20016;-77
2023/06/21 10:50:39;;;;;;;9.55;5.10;;;24.10;99.90;;;;;;6278372;22;20065;-77
2023/06/21 10:53:07;;;;;;;12.70;5.85;;;24.20;99.90;;;;;;6250917;22;20421;-76
2023/06/21 10:55:33;;;;;;;6.72;4.40;;;24.20;99.90;;;;;;6278348;22;20008;-76
2023/06/21 10:58:00;;;;;;;7.20;4.55;;;24.10;99.90;;;;;;6251245;22;20315;-76
2023/06/21 11:00:27;;;;;;;9.35;5.70;;;24.10;99.90;;;;;;6278128;22;20076;-77
2023/06/21 11:02:54;;;;;;;5.15;3.50;;;24.20;99.90;;;;;;6250856;22;20445;-75
2023/06/21 11:05:24;;;;;;;6.43;4.55;;;24.10;99.90;;;;;;6250796;22;20016;-75
2023/06/21 11:07:59;;;;;;;5.80;4.20;;;24.10;99.90;;;;;;6250969;22;20018;-78
2023/06/21 11:10:42;;;;;;;6.05;4.88;;;24.30;99.90;;;;;;6250582;22;20019;-76
2023/06/21 11:13:11;;;;;;;6.68;5.07;;;24.40;99.90;;;;;;6225583;22;20438;-76
2023/06/21 11:15:41;;;;;;;8.77;4.63;;;24.60;99.90;;;;;;6250771;22;20441;-77
2023/06/21 11:18:09;;;;;;;5.15;3.42;;;24.50;99.90;;;;;;6252157;22;20481;-77
2023/06/21 11:20:49;;;;;;;7.25;4.28;;;24.20;99.90;;;;;;6250636;22;20054;-75
2023/06/21 11:23:21;;;;;;;5.47;4.00;;;24.30;99.90;;;;;;6251107;22;20054;-76
2023/06/21 11:26:14;;;;;;;5.65;3.90;;;24.50;99.90;;;;;;6250731;22;20011;-77
2023/06/21 11:28:46;;;;;;;4.65;3.10;;;24.60;99.90;;;;;;6249473;22;20345;-75
2023/06/21 11:31:14;;;;;;;7.47;3.67;;;24.50;99.90;;;;;;6250576;22;20057;-74
2023/06/21 11:33:57;;;;;;;8.07;4.75;;;24.50;99.90;;;;;;6250710;22;20083;-76
2023/06/21 11:36:29;;;;;;;6.85;3.83;;;24.40;99.90;;;;;;6250635;22;20011;-75
2023/06/21 11:39:06;;;;;;;5.60;3.50;;;24.50;99.90;;;;;;6277724;22;20440;-77
2023/06/21 11:41:42;;;;;;;6.25;3.40;;;24.60;99.90;;;;;;6250442;22;20497;-75
2023/06/21 11:44:10;;;;;;;6.63;4.05;;;24.80;99.90;;;;;;6250458;22;20050;-75
2023/06/21 11:46:36;;;;;;;5.63;3.80;;;24.90;99.90;;;;;;6277442;22;20004;-75
2023/06/21 11:49:03;;;;;;;6.43;3.30;;;25.00;99.90;;;;;;6250338;22;20054;-75
2023/06/21 11:51:29;;;;;;;4.55;2.80;;;24.90;99.90;;;;;;6250173;22;20377;-76
2023/06/21 11:53:55;;;;;;;6.00;3.15;;;25.10;99.90;;;;;;6277519;22;20047;-75
2023/06/21 11:56:21;;;;;;;6.68;3.63;;;25.00;99.90;;;;;;6250230;22;20012;-76
2023/06/21 11:58:48;;;;;;;8.77;4.22;;;25.00;99.90;;;;;;6277418;22;20012;-76
2023/06/21 12:01:14;;;;;;;4.68;3.28;;;25.10;99.90;;;;;;6250143;22;20019;-76
2023/06/21 12:03:40;;;;;;;4.88;2.97;;;25.20;99.90;;;;;;6250454;22;20020;-75
2023/06/21 12:06:06;;;;;;;6.38;3.38;;;25.20;99.90;;;;;;6250591;22;20023;-75
2023/06/21 12:08:36;;;;;;;6.53;3.80;;;25.40;99.90;;;;;;6250014;22;20019;-75
2023/06/21 12:11:08;;;;;;;4.88;2.70;;;25.40;99.90;;;;;;6224923;22;20023;-75
2023/06/21 12:13:35;;;;;;;5.03;3.30;;;25.40;99.90;;;;;;6277651;22;20008;-75
2023/06/21 12:16:05;;;;;;;4.20;3.22;;;25.40;99.90;;;;;;6277564;22;20012;-76
2023/06/21 12:18:33;;;;;;;4.97;3.03;;;25.40;99.90;;;;;;6250046;22;20019;-75
2023/06/21 12:21:00;;;;;;;3.10;1.98;;;25.50;99.90;;;;;;6249986;22;20016;-76
2023/06/21 12:23:30;;;;;;;4.65;2.28;;;25.50;99.90;;;;;;6250687;22;20093;-76
2023/06/21 12:26:06;;;;;;;3.00;2.00;;;25.60;99.90;;;;;;6250604;22;20404;-76
2023/06/21 12:28:34;;;;;;;4.10;2.17;;;25.80;99.90;;;;;;6249173;22;20016;-77
2023/06/21 12:31:01;;;;;;;4.30;2.55;;;25.80;99.90;;;;;;6249809;22;20004;-76
2023/06/21 12:33:31;;;;;;;5.65;3.60;;;25.90;99.90;;;;;;6277549;22;20008;-76
2023/06/21 12:36:29;;;;;;;3.83;2.40;;;25.90;99.90;;;;;;6249928;22;20400;-77
2023/06/21 12:39:01;;;;;;;7.22;2.08;;;26.00;99.90;;;;;;6210472;22;20043;-77
2023/06/21 12:41:29;;;;;;;3.10;1.50;;;26.10;99.90;;;;;;6249962;22;20020;-77
2023/06/21 12:43:59;;;;;;;4.65;1.80;;;26.00;99.90;;;;;;6249868;22;20019;-76
2023/06/21 12:46:26;;;;;;;4.15;2.47;;;26.00;99.90;;;;;;6250629;22;20023;-75
2023/06/21 12:48:57;;;;;;;4.10;2.08;;;26.00;99.90;;;;;;6249791;22;20020;-76
2023/06/21 12:51:33;;;;;;;4.03;1.90;;;25.80;99.90;;;;;;6249457;22;20027;-75
2023/06/21 12:54:00;;;;;;;3.67;2.30;;;25.80;99.90;;;;;;6249757;22;20012;-75
2023/06/21 12:56:30;;;;;;;4.85;2.30;;;26.00;99.90;;;;;;6249650;22;20038;-77
2023/06/21 12:58:56;;;;;;;3.65;2.00;;;25.90;99.90;;;;;;6249686;22;20016;-76
2023/06/21 13:01:22;;;;;;;4.07;2.10;;;25.90;99.90;;;;;;6248818;22;20379;-74
2023/06/21 13:03:48;;;;;;;3.88;2.47;;;26.00;99.90;;;;;;6276494;22;20043;-77
2023/06/21 13:06:14;;;;;;;4.68;2.60;;;25.90;99.90;;;;;;6276669;22;20325;-75
2023/06/21 13:08:40;;;;;;;6.45;3.83;;;25.90;99.90;;;;;;6276827;22;20008;-75
2023/06/21 13:11:07;;;;;;;9.13;3.53;;;26.00;99.90;;;;;;6276709;22;20014;-77
2023/06/21 13:13:33;;;;;;;9.35;3.50;;;25.90;99.90;;;;;;6249137;22;20016;-76
2023/06/21 13:15:59;;;;;;;5.20;3.15;;;26.00;99.90;;;;;;6276918;22;20007;-77
2023/06/21 13:18:27;;;;;;;6.30;3.33;;;25.80;99.90;;;;;;6276296;22;20018;-75
2023/06/21 13:20:57;;;;;;;6.30;3.38;;;25.90;99.90;;;;;;6249146;22;20016;-75
2023/06/21 13:23:27;;;;;;;9.63;5.10;;;25.90;99.90;;;;;;6249301;22;20022;-75
2023/06/21 13:25:54;;;;;;;9.00;5.22;;;25.80;99.90;;;;;;6249050;22;20357;-76
2023/06/21 13:28:19;;;;;;;9.75;4.78;;;25.80;99.90;;;;;;6248986;22;20015;-75
2023/06/21 13:30:47;;;;;;;7.93;4.38;;;25.80;99.90;;;;;;6276480;22;20057;-77
2023/06/21 13:33:13;;;;;;;8.27;4.47;;;25.80;99.90;;;;;;6249141;22;20012;-75
2023/06/21 13:35:43;;;;;;;8.88;4.00;;;25.90;99.90;;;;;;6276257;22;20008;-77
2023/06/21 13:38:10;;;;;;;10.60;4.78;;;25.90;99.90;;;;;;6276391;22;20039;-76
2023/06/21 13:40:36;;;;;;;7.15;4.63;;;25.80;99.90;;;;;;6248834;22;20015;-76
2023/06/21 13:43:02;;;;;;;9.60;5.55;;;25.80;99.90;;;;;;6276821;22;20011;-76
2023/06/21 13:45:35;;;;;;;12.30;6.68;;;25.70;99.90;;;;;;6276471;22;20019;-75
2023/06/21 13:48:01;;;;;;;13.65;7.18;;;25.60;99.90;;;;;;6276073;22;20012;-75
2023/06/21 13:50:27;;;;;;;14.38;7.88;;;25.80;99.90;;;;;;6248915;22;20441;-75
2023/06/21 13:52:52;;;;;;;8.57;5.22;;;25.80;99.90;;;;;;6248922;22;20012;-75
2023/06/21 13:55:18;;;;;;;10.50;6.20;;;25.90;99.90;;;;;;6249303;22;20087;-76
2023/06/21 13:57:44;;;;;;;12.73;6.53;;;25.90;99.90;;;;;;6249200;22;20022;-76
2023/06/21 14:00:15;;;;;;;13.38;7.53;;;25.80;99.90;;;;;;6249132;22;20114;-77
2023/06/21 14:02:42;;;;;;;13.00;6.13;;;25.90;99.90;;;;;;6249220;22;20436;-76
2023/06/21 14:05:12;;;;;;;7.85;4.30;;;26.00;99.90;;;;;;6223911;22;20438;-75
2023/06/21 14:07:40;;;;;;;7.85;4.65;;;26.00;99.90;;;;;;6249291;22;20468;-77
2023/06/21 14:10:06;;;;;;;9.23;5.68;;;25.70;99.90;;;;;;6276946;22;20015;-76
2023/06/21 14:12:32;;;;;;;6.97;3.83;;;25.80;99.90;;;;;;6249373;22;20111;-77
2023/06/21 14:14:58;;;;;;;5.75;2.65;;;25.70;99.90;;;;;;6278516;22;20011;-76
2023/06/21 14:17:24;;;;;;;6.35;4.15;;;25.60;99.90;;;;;;6279116;22;20015;-75
2023/06/21 14:19:50;;;;;;;7.43;3.80;;;25.80;99.90;;;;;;6251716;22;20337;-75
2023/06/21 14:22:17;;;;;;;7.85;4.57;;;25.70;99.90;;;;;;6251248;22;20069;-76
2023/06/21 14:24:43;;;;;;;8.35;4.60;;;25.60;99.90;;;;;;6251377;22;20082;-76
2023/06/21 14:27:09;;;;;;;9.05;4.70;;;25.50;99.90;;;;;;6278532;22;20012;-76
2023/06/21 14:29:35;;;;;;;7.47;3.08;;;25.60;99.90;;;;;;6251239;22;20023;-76
2023/06/21 14:32:01;;;;;;;7.35;3.40;;;25.70;99.90;;;;;;6251168;22;20008;-75
2023/06/21 14:34:26;;;;;;;8.63;2.88;;;25.60;99.90;;;;;;6278692;22;20031;-76
2023/06/21 14:36:52;;;;;;;5.68;3.17;;;25.60;99.90;;;;;;6278691;22;20003;-75
2023/06/21 14:39:18;;;;;;;8.18;4.07;;;25.60;99.90;;;;;;6278556;22;20018;-75
2023/06/21 14:41:44;;;;;;;7.53;4.15;;;25.60;99.90;;;;;;6250976;22;20015;-75
2023/06/21 14:44:10;;;;;;;7.18;3.55;;;25.50;99.90;;;;;;6251016;22;20054;-76
2023/06/21 14:46:36;;;;;;;6.47;3.05;;;25.60;99.90;;;;;;6250990;22;20015;-76
2023/06/21 14:49:01;;;;;;;6.32;3.60;;;25.80;99.90;;;;;;6251094;22;20344;-75
2023/06/21 14:51:27;;;;;;;7.57;4.22;;;25.80;99.90;;;;;;6278184;22;20368;-75
2023/06/21 14:53:53;;;;;;;9.20;3.60;;;25.80;99.90;;;;;;6278393;22;20491;-75
2023/06/21 14:56:19;;;;;;;4.95;3.20;;;25.70;99.90;;;;;;6278487;22;20049;-76
2023/06/21 14:58:44;;;;;;;9.18;3.90;;;25.70;99.90;;;;;;6278441;22;20086;-75
2023/06/21 15:01:10;;;;;;;6.25;3.28;;;25.70;99.90;;;;;;6278147;22;20043;-75
2023/06/21 15:03:36;;;;;;;6.70;3.80;;;25.60;99.90;;;;;;6251238;22;20047;-77
2023/06/21 15:06:02;;;;;;;5.55;2.85;;;25.50;99.90;;;;;;6251003;22;20014;-76
2023/06/21 15:08:28;;;;;;;6.35;3.45;;;25.50;99.90;;;;;;6251456;22;20353;-78
2023/06/21 15:10:54;;;;;;;10.63;4.22;;;25.40;99.90;;;;;;6277867;22;20015;-75
2023/06/21 15:13:19;;;;;;;8.93;3.17;;;25.50;99.90;;;;;;6250705;22;20048;-75
2023/06/21 15:15:45;;;;;;;6.53;3.05;;;25.40;99.90;;;;;;6278386;22;20365;-76
2023/06/21 15:18:12;;;;;;;6.72;3.10;;;25.30;99.90;;;;;;6225349;22;20012;-75
2023/06/21 15:20:37;;;;;;;6.13;2.80;;;25.50;99.90;;;;;;6277949;22;20007;-75
2023/06/21 15:23:03;;;;;;;5.70;3.10;;;25.50;99.90;;;;;;6250637;22;20341;-74
2023/06/21 15:25:29;;;;;;;8.05;3.42;;;25.40;99.90;;;;;;6250016;22;20043;-75
2023/06/21 15:27:56;;;;;;;7.53;3.45;;;25.20;99.90;;;;;;6250660;22;20157;-76
2023/06/21 15:30:22;;;;;;;5.63;3.10;;;25.20;99.90;;;;;;6251288;22;20338;-75
2023/06/21 15:32:48;;;;;;;6.05;3.13;;;25.20;99.90;;;;;;6277556;22;20078;-75
2023/06/21 15:35:13;;;;;;;6.93;3.35;;;25.40;99.90;;;;;;6277956;22;20007;-76
2023/06/21 15:37:39;;;;;;;7.20;2.70;;;25.20;99.90;;;;;;6250629;22;20014;-76
2023/06/21 15:40:08;;;;;;;4.78;2.80;;;25.40;99.90;;;;;;6250742;22;20457;-75